createdAt,value
2022-11-30T00:01:25.624Z,39.17
2022-11-30T00:03:54.992Z,38.22
2022-11-30T00:06:23.943Z,38.03
2022-11-30T00:08:53.524Z,36.15
2022-11-30T00:11:22.625Z,38.13
2022-11-30T00:13:50.997Z,37.80
2022-11-30T00:16:18.792Z,36.22
2022-11-30T00:18:48.029Z,38.72
2022-11-30T00:21:16.246Z,40.50
2022-11-30T00:23:46.065Z,38.35
2022-11-30T00:26:15.884Z,40.67
2022-11-30T00:28:45.160Z,38.22
2022-11-30T00:31:14.918Z,39.13
2022-11-30T00:33:42.865Z,38.78
2022-11-30T00:36:14.654Z,39.97
2022-11-30T00:38:42.446Z,38.58
2022-11-30T00:41:10.859Z,38.40
2022-11-30T00:43:38.633Z,34.33
2022-11-30T00:46:08.982Z,39.17
2022-11-30T00:48:36.909Z,35.83
2022-11-30T00:51:05.021Z,34.65
2022-11-30T00:53:34.314Z,33.83
2022-11-30T00:56:02.393Z,34.40
2022-11-30T00:58:30.161Z,34.70
2022-11-30T01:00:57.975Z,35.13
2022-11-30T01:03:25.823Z,34.10
2022-11-30T01:05:53.659Z,35.03
2022-11-30T01:08:21.419Z,35.53
2022-11-30T01:10:53.712Z,33.88
2022-11-30T01:13:21.494Z,35.05
2022-11-30T01:15:49.308Z,35.47
2022-11-30T01:18:17.214Z,34.90
2022-11-30T01:20:45.047Z,36.10
2022-11-30T01:23:12.800Z,35.00
2022-11-30T01:25:40.637Z,34.20
2022-11-30T01:28:10.843Z,35.53
2022-11-30T01:30:38.689Z,35.90
2022-11-30T01:33:06.970Z,34.38
2022-11-30T01:35:34.705Z,36.78
2022-11-30T01:38:02.466Z,35.63
2022-11-30T01:40:30.252Z,35.33
2022-11-30T01:42:58.025Z,34.88
2022-11-30T01:45:27.522Z,36.67
2022-11-30T01:47:57.665Z,36.95
2022-11-30T01:50:29.374Z,36.25
2022-11-30T01:52:58.686Z,38.05
2022-11-30T01:55:30.513Z,37.92
2022-11-30T01:58:03.128Z,40.70
2022-11-30T02:00:32.531Z,36.92
2022-11-30T02:03:05.812Z,39.35
2022-11-30T02:05:35.488Z,39.55
2022-11-30T02:08:03.431Z,39.97
2022-11-30T02:10:33.503Z,40.65
2022-11-30T02:13:17.119Z,37.92
2022-11-30T02:15:55.928Z,39.60
2022-11-30T02:18:31.862Z,40.85
2022-11-30T02:21:07.723Z,40.40
2022-11-30T02:24:05.252Z,40.17
2022-11-30T02:27:09.486Z,41.35
2022-11-30T02:29:41.999Z,40.17
2022-11-30T02:32:15.169Z,39.53
2022-11-30T02:34:44.583Z,44.70
2022-11-30T02:37:14.603Z,40.45
2022-11-30T02:39:43.171Z,41.65
2022-11-30T02:42:13.504Z,42.35
2022-11-30T02:44:45.639Z,39.03
2022-11-30T02:47:23.305Z,41.63
2022-11-30T02:49:57.021Z,42.13
2022-11-30T02:52:27.313Z,41.45
2022-11-30T02:54:59.489Z,40.70
2022-11-30T02:57:27.314Z,41.15
2022-11-30T02:59:56.738Z,42.92
2022-11-30T03:02:24.793Z,41.08
2022-11-30T03:04:52.593Z,40.05
2022-11-30T03:07:20.396Z,38.67
2022-11-30T03:09:48.241Z,41.67
2022-11-30T03:12:16.012Z,39.40
2022-11-30T03:14:44.000Z,41.07
2022-11-30T03:17:13.421Z,39.45
2022-11-30T03:19:41.299Z,39.42
2022-11-30T03:22:09.170Z,36.05
2022-11-30T03:24:37.040Z,36.50
2022-11-30T03:27:04.924Z,38.55
2022-11-30T03:29:32.719Z,35.20
2022-11-30T03:32:00.545Z,36.20
2022-11-30T03:34:29.714Z,35.63
2022-11-30T03:36:57.468Z,35.55
2022-11-30T03:39:25.290Z,36.70
2022-11-30T03:41:53.065Z,37.15
2022-11-30T03:44:20.966Z,33.70
2022-11-30T03:46:48.831Z,35.33
2022-11-30T03:49:16.691Z,37.72
2022-11-30T03:51:45.817Z,37.05
2022-11-30T03:54:13.627Z,37.15
2022-11-30T03:56:41.449Z,38.15
2022-11-30T03:59:09.214Z,37.42
2022-11-30T04:01:37.135Z,38.80
2022-11-30T04:04:05.113Z,37.25
2022-11-30T04:06:32.893Z,40.80
2022-11-30T04:09:02.833Z,39.55
2022-11-30T04:11:30.945Z,41.70
2022-11-30T04:13:58.682Z,38.63
2022-11-30T04:16:26.486Z,40.80
2022-11-30T04:18:54.284Z,38.75
2022-11-30T04:21:22.052Z,37.17
2022-11-30T04:23:49.818Z,36.30
2022-11-30T04:26:19.321Z,36.50
2022-11-30T04:28:47.108Z,35.78
2022-11-30T04:31:15.082Z,34.30
2022-11-30T04:33:42.883Z,31.23
2022-11-30T04:36:18.527Z,32.35
2022-11-30T04:38:46.575Z,30.30
2022-11-30T04:41:14.885Z,28.58
2022-11-30T04:43:44.045Z,28.42
2022-11-30T04:46:11.967Z,30.27
2022-11-30T04:48:39.768Z,27.92
2022-11-30T04:51:09.496Z,29.95
2022-11-30T04:53:38.479Z,31.02
2022-11-30T04:56:07.784Z,29.25
2022-11-30T04:58:35.999Z,29.48
2022-11-30T05:01:05.412Z,29.77
2022-11-30T05:03:33.191Z,31.35
2022-11-30T05:06:00.988Z,33.45
2022-11-30T05:08:28.759Z,33.95
2022-11-30T05:10:56.792Z,31.02
2022-11-30T05:13:25.912Z,32.95
2022-11-30T05:15:54.508Z,33.80
2022-11-30T05:18:23.987Z,34.03
2022-11-30T05:20:53.218Z,33.35
2022-11-30T05:23:21.420Z,33.15
2022-11-30T05:25:49.782Z,31.50
2022-11-30T05:28:17.598Z,30.45
2022-11-30T05:30:46.089Z,31.42
2022-11-30T05:33:13.913Z,32.47
2022-11-30T05:35:43.966Z,32.20
2022-11-30T05:38:11.784Z,30.08
2022-11-30T05:40:39.631Z,30.10
2022-11-30T05:43:08.057Z,28.02
2022-11-30T05:45:35.845Z,28.23
2022-11-30T05:48:03.616Z,26.95
2022-11-30T05:50:31.427Z,28.25
2022-11-30T05:53:02.362Z,24.17
2022-11-30T05:55:32.334Z,24.63
2022-11-30T05:58:00.200Z,24.27
2022-11-30T06:00:28.170Z,23.30
2022-11-30T06:02:59.515Z,28.02
2022-11-30T06:05:27.633Z,24.65
2022-11-30T06:07:55.611Z,24.60
2022-11-30T06:10:27.203Z,25.60
2022-11-30T06:12:55.009Z,24.13
2022-11-30T06:15:22.882Z,24.92
2022-11-30T06:17:50.783Z,25.88
2022-11-30T06:20:18.782Z,26.02
2022-11-30T06:22:47.626Z,25.75
2022-11-30T06:25:15.910Z,24.00
2022-11-30T06:27:45.043Z,26.20
2022-11-30T06:30:14.065Z,25.63
2022-11-30T06:32:44.885Z,27.00
2022-11-30T06:35:12.666Z,26.17
2022-11-30T06:37:40.537Z,25.80
2022-11-30T06:40:10.259Z,25.85
2022-11-30T06:42:39.014Z,23.92
2022-11-30T06:45:10.330Z,25.13
2022-11-30T06:47:38.106Z,23.25
2022-11-30T06:50:08.130Z,24.58
2022-11-30T06:52:36.128Z,23.58
2022-11-30T06:55:04.061Z,25.60
2022-11-30T06:57:32.130Z,22.50
2022-11-30T06:59:59.925Z,26.63
2022-11-30T07:02:29.149Z,21.42
2022-11-30T07:04:56.990Z,23.70
2022-11-30T07:07:24.791Z,21.30
2022-11-30T07:09:53.046Z,21.40
2022-11-30T07:12:20.865Z,21.50
2022-11-30T07:14:52.293Z,22.65
2022-11-30T07:17:20.142Z,22.55
2022-11-30T07:19:49.588Z,22.15
2022-11-30T07:22:17.392Z,23.75
2022-11-30T07:25:02.844Z,22.70
2022-11-30T07:27:30.929Z,22.70
2022-11-30T07:29:58.694Z,22.63
2022-11-30T07:32:26.970Z,22.47
2022-11-30T07:34:56.285Z,22.08
2022-11-30T07:37:24.286Z,22.02
2022-11-30T07:39:52.065Z,24.85
2022-11-30T07:42:19.906Z,23.10
2022-11-30T07:44:51.494Z,22.10
2022-11-30T07:47:24.364Z,23.43
2022-11-30T07:49:52.166Z,25.08
2022-11-30T07:52:21.267Z,24.63
2022-11-30T07:54:49.277Z,25.33
2022-11-30T07:57:17.235Z,26.48
2022-11-30T07:59:45.225Z,26.85
2022-11-30T08:02:13.615Z,26.60
2022-11-30T08:04:41.598Z,26.05
2022-11-30T08:07:09.419Z,32.35
2022-11-30T08:09:38.547Z,30.10
2022-11-30T08:12:06.724Z,29.88
2022-11-30T08:14:50.445Z,29.63
2022-11-30T08:17:22.553Z,29.55
2022-11-30T08:19:50.334Z,30.40
2022-11-30T08:22:18.109Z,28.88
2022-11-30T08:24:50.067Z,29.88
2022-11-30T08:27:18.028Z,30.75
2022-11-30T08:29:45.794Z,28.98
2022-11-30T08:32:13.770Z,28.92
2022-11-30T08:34:41.612Z,29.15
2022-11-30T08:37:09.552Z,27.92
2022-11-30T08:39:37.363Z,29.70
2022-11-30T08:42:07.799Z,30.70
2022-11-30T08:44:35.574Z,31.77
2022-11-30T08:47:03.357Z,28.73
2022-11-30T08:49:31.596Z,28.70
2022-11-30T08:54:48.961Z,29.40
2022-11-30T08:57:19.638Z,27.95
2022-11-30T08:59:47.646Z,27.38
2022-11-30T09:02:18.106Z,30.48
2022-11-30T09:04:48.737Z,30.60
2022-11-30T09:07:16.669Z,28.30
2022-11-30T09:09:44.566Z,28.52
2022-11-30T09:12:12.430Z,29.73
2022-11-30T09:14:41.548Z,29.27
2022-11-30T09:17:09.393Z,27.17
2022-11-30T09:19:37.179Z,26.50
2022-11-30T09:22:05.095Z,26.42
2022-11-30T09:24:32.908Z,29.17
2022-11-30T09:27:00.693Z,26.58
2022-11-30T09:29:28.571Z,26.83
2022-11-30T09:31:58.147Z,27.42
2022-11-30T09:34:25.944Z,25.98
2022-11-30T09:36:53.889Z,26.38
2022-11-30T09:39:21.790Z,28.98
2022-11-30T09:42:18.621Z,26.90
2022-11-30T09:44:53.321Z,26.57
2022-11-30T09:47:48.889Z,26.27
2022-11-30T09:50:20.178Z,27.52
2022-11-30T09:52:51.966Z,28.40
2022-11-30T09:55:27.525Z,27.42
2022-11-30T09:57:58.000Z,27.95
2022-11-30T10:00:26.258Z,28.20
2022-11-30T10:02:58.082Z,28.17
2022-11-30T10:05:29.039Z,25.05
2022-11-30T10:08:09.303Z,24.27
2022-11-30T10:10:41.761Z,23.98
2022-11-30T10:13:27.776Z,23.95
2022-11-30T10:16:10.146Z,23.30
2022-11-30T10:18:50.988Z,24.23
2022-11-30T10:21:44.384Z,24.60
2022-11-30T10:24:25.115Z,25.33
2022-11-30T10:26:56.507Z,23.67
2022-11-30T10:29:31.434Z,23.73
2022-11-30T10:32:00.643Z,22.95
2022-11-30T10:34:35.834Z,24.17
2022-11-30T10:37:11.046Z,24.08
2022-11-30T10:39:44.747Z,23.23
2022-11-30T10:42:17.369Z,22.75
2022-11-30T10:44:52.585Z,22.30
2022-11-30T10:47:24.504Z,22.48
2022-11-30T10:49:54.264Z,22.42
2022-11-30T10:52:26.008Z,21.37
2022-11-30T10:55:00.568Z,21.80
2022-11-30T10:57:33.981Z,22.58
2022-11-30T11:00:06.518Z,20.83
2022-11-30T11:02:43.587Z,19.67
2022-11-30T11:05:20.092Z,17.80
2022-11-30T11:08:01.457Z,19.08
2022-11-30T11:10:36.326Z,21.00
2022-11-30T11:13:04.981Z,20.45
2022-11-30T11:15:34.729Z,18.80
2022-11-30T11:18:22.863Z,18.98
2022-11-30T11:21:05.858Z,17.08
2022-11-30T11:23:36.709Z,16.35
2022-11-30T11:26:05.853Z,15.70
2022-11-30T11:28:35.627Z,16.17
2022-11-30T11:31:17.908Z,15.63
2022-11-30T11:33:53.032Z,14.88
2022-11-30T11:36:28.710Z,15.07
2022-11-30T11:38:56.899Z,14.35
2022-11-30T11:41:27.747Z,12.63
2022-11-30T11:44:03.906Z,12.30
2022-11-30T11:46:33.185Z,11.77
2022-11-30T11:49:04.766Z,11.23
2022-11-30T11:51:35.694Z,11.18
2022-11-30T11:54:10.023Z,12.57
2022-11-30T11:56:38.422Z,13.13
2022-11-30T11:59:15.269Z,13.20
2022-11-30T12:02:00.094Z,15.32
2022-11-30T12:04:46.816Z,16.88
2022-11-30T12:07:35.810Z,16.58
2022-11-30T12:10:50.073Z,17.63
2022-11-30T12:13:13.668Z,19.08
2022-11-30T12:15:54.395Z,19.50
2022-11-30T12:18:25.766Z,20.30
2022-11-30T12:21:00.641Z,19.48
2022-11-30T12:23:51.296Z,20.10
2022-11-30T12:26:28.895Z,20.27
2022-11-30T12:29:21.905Z,19.42
2022-11-30T12:32:03.804Z,20.17
2022-11-30T12:35:01.382Z,21.08
2022-11-30T12:37:40.694Z,20.95
2022-11-30T12:40:24.106Z,21.00
2022-11-30T12:43:01.057Z,18.90
2022-11-30T12:45:36.058Z,18.75
2022-11-30T12:48:15.382Z,19.05
2022-11-30T12:50:53.593Z,17.92
2022-11-30T12:53:28.940Z,18.02
2022-11-30T12:56:10.181Z,19.25
2022-11-30T12:58:46.035Z,18.47
2022-11-30T13:01:27.330Z,17.42
2022-11-30T13:04:01.779Z,16.17
2022-11-30T13:06:33.324Z,18.83
2022-11-30T13:09:05.185Z,20.40
2022-11-30T13:11:38.384Z,20.52
2022-11-30T13:14:13.988Z,21.33
2022-11-30T13:16:43.989Z,22.60
2022-11-30T13:19:32.091Z,21.67
2022-11-30T13:22:07.678Z,23.70
2022-11-30T13:24:39.105Z,23.33
2022-11-30T13:27:14.945Z,22.98
2022-11-30T13:30:01.362Z,22.75
2022-11-30T13:32:57.319Z,21.42
2022-11-30T13:35:42.498Z,18.95
2022-11-30T13:38:37.575Z,18.17
2022-11-30T13:41:08.302Z,17.70
2022-11-30T13:43:41.174Z,17.85
2022-11-30T13:46:16.417Z,16.40
2022-11-30T13:48:45.883Z,15.90
2022-11-30T13:51:14.870Z,17.00
2022-11-30T13:53:42.873Z,18.07
2022-11-30T13:56:32.962Z,15.45
2022-11-30T13:59:36.115Z,15.60
2022-11-30T14:05:39.366Z,18.40
2022-11-30T14:08:32.121Z,18.25
2022-11-30T14:11:38.409Z,19.48
2022-11-30T14:14:47.385Z,21.10
2022-11-30T14:17:19.718Z,20.73
2022-11-30T14:19:50.459Z,21.83
2022-11-30T14:22:19.336Z,21.65
2022-11-30T14:24:49.595Z,23.27
2022-11-30T14:27:23.880Z,21.20
2022-11-30T14:29:57.137Z,21.23
2022-11-30T14:32:36.148Z,22.33
2022-11-30T14:35:09.165Z,22.40
2022-11-30T14:37:42.675Z,21.90
2022-11-30T14:40:19.092Z,22.48
2022-11-30T14:42:50.328Z,25.85
2022-11-30T14:45:25.624Z,24.55
2022-11-30T14:48:04.600Z,25.70
2022-11-30T14:50:33.254Z,28.60
2022-11-30T14:53:19.286Z,28.00
2022-11-30T14:55:51.658Z,28.50
2022-11-30T14:58:26.277Z,29.63
2022-11-30T15:00:57.188Z,28.95
2022-11-30T15:03:28.305Z,29.05
2022-11-30T15:05:58.263Z,29.23
2022-11-30T15:08:36.567Z,28.92
2022-11-30T15:11:06.622Z,29.38
2022-11-30T15:13:35.287Z,28.63
2022-11-30T15:16:10.812Z,29.88
2022-11-30T15:18:40.417Z,29.92
2022-11-30T15:21:15.365Z,32.03
2022-11-30T15:23:46.731Z,30.35
2022-11-30T15:26:23.803Z,29.45
2022-11-30T15:28:57.413Z,30.08
2022-11-30T15:31:31.230Z,30.17
2022-11-30T15:33:59.077Z,29.23
2022-11-30T15:36:33.284Z,28.38
2022-11-30T15:39:03.685Z,30.15
2022-11-30T15:41:33.164Z,29.92
2022-11-30T15:44:01.980Z,30.98
2022-11-30T15:46:34.648Z,28.80
2022-11-30T15:49:07.919Z,29.85
2022-11-30T15:51:40.103Z,28.35
2022-11-30T15:54:08.366Z,28.50
2022-11-30T15:56:36.441Z,28.63
2022-11-30T15:59:06.921Z,29.17
2022-11-30T16:02:01.954Z,30.23
2022-11-30T16:04:50.390Z,29.60
2022-11-30T16:07:18.829Z,29.35
2022-11-30T16:09:46.998Z,29.20
2022-11-30T16:12:30.465Z,30.15
2022-11-30T16:14:58.390Z,30.27
2022-11-30T16:17:29.883Z,30.20
2022-11-30T16:19:57.819Z,29.50
2022-11-30T16:22:25.580Z,31.23
2022-11-30T16:24:53.325Z,29.88
2022-11-30T16:27:22.555Z,30.00
2022-11-30T16:29:52.692Z,29.48
2022-11-30T16:32:20.747Z,31.65
2022-11-30T16:34:49.944Z,30.40
2022-11-30T16:37:17.755Z,28.98
2022-11-30T16:39:45.708Z,29.65
2022-11-30T16:42:13.778Z,28.75
2022-11-30T16:44:41.531Z,28.40
2022-11-30T16:47:09.317Z,28.02
2022-11-30T16:49:37.469Z,28.77
2022-11-30T16:52:06.698Z,29.08
2022-11-30T16:54:34.471Z,29.58
2022-11-30T16:57:02.331Z,29.67
2022-11-30T16:59:30.081Z,30.90
2022-11-30T17:01:58.237Z,30.63
2022-11-30T17:04:29.638Z,29.52
2022-11-30T17:07:02.471Z,31.45
2022-11-30T17:09:34.387Z,30.25
2022-11-30T17:12:03.165Z,29.98
2022-11-30T17:14:31.014Z,31.48
2022-11-30T17:17:00.094Z,30.03
2022-11-30T17:19:27.989Z,28.35
2022-11-30T17:21:55.847Z,30.37
2022-11-30T17:24:23.641Z,29.90
2022-11-30T17:26:52.763Z,28.42
2022-11-30T17:29:20.635Z,29.25
2022-11-30T17:31:48.411Z,28.83
2022-11-30T17:34:16.248Z,28.88
2022-11-30T17:36:44.215Z,30.27
2022-11-30T17:39:12.079Z,29.52
2022-11-30T17:41:39.843Z,27.90
2022-11-30T17:44:10.420Z,28.60
2022-11-30T17:46:39.899Z,28.63
2022-11-30T17:49:09.786Z,27.80
2022-11-30T17:51:37.836Z,28.33
2022-11-30T17:54:07.530Z,27.95
2022-11-30T17:56:35.776Z,28.38
2022-11-30T17:59:03.833Z,28.48
2022-11-30T18:01:33.069Z,28.70
2022-11-30T18:04:00.986Z,28.98
2022-11-30T18:06:29.377Z,28.90
2022-11-30T18:08:58.456Z,29.65
2022-11-30T18:11:28.876Z,31.08
2022-11-30T18:14:01.322Z,30.50
2022-11-30T18:16:32.384Z,31.80
2022-11-30T18:19:00.793Z,29.58
2022-11-30T18:21:30.745Z,29.25
2022-11-30T18:23:58.924Z,29.10
2022-11-30T18:26:27.858Z,28.13
2022-11-30T18:28:57.659Z,30.30
2022-11-30T18:31:25.566Z,30.17
2022-11-30T18:33:57.001Z,29.67
2022-11-30T18:36:25.249Z,28.08
2022-11-30T18:38:53.111Z,28.95
2022-11-30T18:41:21.131Z,31.67
2022-11-30T18:43:49.257Z,29.10
2022-11-30T18:46:17.168Z,29.60
2022-11-30T18:48:45.086Z,30.85
2022-11-30T18:51:16.444Z,29.75
2022-11-30T18:53:44.627Z,31.50
2022-11-30T18:56:14.433Z,31.83
2022-11-30T18:58:43.026Z,31.13
2022-11-30T19:01:13.605Z,31.00
2022-11-30T19:03:42.073Z,32.40
2022-11-30T19:06:11.474Z,32.70
2022-11-30T19:08:41.976Z,32.92
2022-11-30T19:11:10.797Z,32.23
2022-11-30T19:13:38.615Z,33.50
2022-11-30T19:16:08.309Z,34.95
2022-11-30T19:18:36.727Z,35.83
2022-11-30T19:21:09.351Z,34.20
2022-11-30T19:23:37.718Z,34.97
2022-11-30T19:26:08.099Z,35.25
2022-11-30T19:28:37.679Z,34.45
2022-11-30T19:31:08.709Z,35.10
2022-11-30T19:33:37.269Z,34.00
2022-11-30T19:36:06.970Z,35.60
2022-11-30T19:38:35.000Z,35.25
2022-11-30T19:41:07.401Z,35.40
2022-11-30T19:43:35.501Z,36.95
2022-11-30T19:46:07.373Z,37.25
2022-11-30T19:48:35.345Z,36.20
2022-11-30T19:51:05.872Z,35.65
2022-11-30T19:53:33.851Z,34.80
2022-11-30T19:56:06.437Z,35.33
2022-11-30T19:58:34.730Z,35.40
2022-11-30T20:01:02.869Z,36.77
2022-11-30T20:03:34.371Z,35.20
2022-11-30T20:06:02.258Z,36.30
2022-11-30T20:08:30.173Z,36.45
2022-11-30T20:10:58.023Z,36.25
2022-11-30T20:13:27.213Z,36.97
2022-11-30T20:15:55.137Z,37.22
2022-11-30T20:18:23.011Z,37.35
2022-11-30T20:20:50.788Z,37.38
2022-11-30T20:23:18.613Z,40.92
2022-11-30T20:25:46.454Z,39.28
2022-11-30T20:28:14.294Z,35.85
2022-11-30T20:30:43.774Z,39.75
2022-11-30T20:33:11.638Z,39.78
2022-11-30T20:35:39.437Z,40.42
2022-11-30T20:38:07.357Z,40.08
2022-11-30T20:40:37.542Z,39.67
2022-11-30T20:43:05.421Z,39.80
2022-11-30T20:45:33.304Z,40.00
2022-11-30T20:48:02.499Z,38.83
2022-11-30T20:50:30.469Z,39.63
2022-11-30T20:52:58.321Z,39.08
2022-11-30T20:55:26.220Z,38.85
2022-11-30T20:57:54.032Z,39.10
2022-11-30T21:00:21.962Z,37.42
2022-11-30T21:02:50.619Z,37.95
2022-11-30T21:05:19.854Z,39.65
2022-11-30T21:07:48.370Z,38.47
2022-11-30T21:10:16.352Z,37.80
2022-11-30T21:12:44.190Z,35.85
2022-11-30T21:15:12.210Z,39.22
2022-11-30T21:17:40.021Z,38.00
2022-11-30T21:20:09.809Z,39.97
2022-11-30T21:22:38.955Z,37.95
2022-11-30T21:25:07.763Z,38.90
2022-11-30T21:27:35.651Z,39.08
2022-11-30T21:30:03.679Z,41.10
2022-11-30T21:32:31.496Z,42.72
2022-11-30T21:34:59.308Z,41.37
2022-11-30T21:37:27.126Z,43.80
2022-11-30T21:39:56.258Z,39.13
2022-11-30T21:42:24.044Z,43.38
2022-11-30T21:44:51.789Z,45.63
2022-11-30T21:47:19.582Z,43.25
2022-11-30T21:49:47.376Z,43.22
2022-11-30T21:52:15.202Z,41.78
2022-11-30T21:54:43.423Z,42.80
2022-11-30T21:57:12.569Z,43.27
2022-11-30T21:59:40.377Z,42.15
2022-11-30T22:02:09.853Z,41.10
2022-11-30T22:04:38.108Z,38.97
2022-11-30T22:07:06.185Z,41.50
2022-11-30T22:09:34.459Z,41.10
2022-11-30T22:12:02.266Z,40.70
2022-11-30T22:14:31.432Z,41.08
2022-11-30T22:16:59.257Z,40.85
2022-11-30T22:19:27.010Z,44.23
2022-11-30T22:21:54.767Z,40.33
2022-11-30T22:24:22.671Z,40.47
2022-11-30T22:26:50.398Z,41.90
2022-11-30T22:29:20.253Z,36.15
2022-11-30T22:31:51.800Z,35.97
2022-11-30T22:34:20.132Z,37.03
2022-11-30T22:36:48.461Z,36.65
2022-11-30T22:39:18.034Z,36.63
2022-11-30T22:41:54.248Z,39.10
2022-11-30T22:44:23.001Z,39.03
2022-11-30T22:46:52.208Z,39.67
2022-11-30T22:49:21.612Z,39.28
2022-11-30T22:51:50.445Z,38.95
2022-11-30T22:54:19.213Z,39.97
2022-11-30T22:56:47.229Z,42.28
2022-11-30T22:59:16.199Z,39.70
2022-11-30T23:01:45.783Z,44.20
2022-11-30T23:04:16.946Z,43.05
2022-11-30T23:06:46.286Z,43.65
2022-11-30T23:09:16.745Z,45.83
2022-11-30T23:11:44.638Z,43.33
2022-11-30T23:14:12.723Z,46.90
2022-11-30T23:16:41.699Z,44.92
2022-11-30T23:19:11.190Z,47.55
2022-11-30T23:21:42.300Z,47.67
2022-11-30T23:24:13.709Z,47.53
2022-11-30T23:26:42.180Z,48.43
2022-11-30T23:29:12.940Z,46.13
2022-11-30T23:31:42.495Z,49.55
2022-11-30T23:34:13.036Z,46.97
2022-11-30T23:36:42.189Z,47.45
2022-11-30T23:39:12.034Z,48.13
2022-11-30T23:41:40.372Z,47.33
2022-11-30T23:44:08.588Z,45.47
2022-11-30T23:46:37.139Z,47.70
2022-11-30T23:49:05.384Z,49.88
2022-11-30T23:51:33.237Z,47.35
2022-11-30T23:54:02.461Z,51.73
2022-11-30T23:56:30.221Z,49.58
2022-11-30T23:58:58.073Z,49.75
